Time;durP1;ratioP1;P1;durP2;ratioP2;P2;SDS_P1;SDS_P2;PMS_P1;PMS_P2;Temp;Humidity;BMP_temperature;BMP_pressure;BME280_temperature;BME280_humidity;BME280_pressure;Samples;Min_cycle;Max_cycle;Signal;HPM_P1;HPM_P2
2022/04/28 00:00:27;;;;;;;;;7.40;7.40;;;;;7.75;64.79;101032.44;5056340;28;8984;-62
2022/04/28 00:02:55;;;;;;;;;12.20;11.20;;;;;7.72;64.58;101030.81;5056681;28;8838;-62
2022/04/28 00:05:23;;;;;;;;;9.40;7.80;;;;;7.70;64.58;101030.00;5056542;28;8872;-61
2022/04/28 00:07:51;;;;;;;;;9.00;9.00;;;;;7.67;65.02;101029.31;5056530;28;8854;-61
2022/04/28 00:10:19;;;;;;;;;7.60;6.20;;;;;7.64;64.95;101033.91;5055803;28;9589;-62
2022/04/28 00:12:46;;;;;;;;;13.40;7.00;;;;;7.59;64.87;101034.13;5054905;28;8939;-62
2022/04/28 00:15:14;;;;;;;;;10.40;9.40;;;;;7.56;64.52;101041.38;5054963;28;9486;-64
2022/04/28 00:17:42;;;;;;;;;8.80;8.60;;;;;7.52;65.08;101045.13;5053994;28;8846;-61
2022/04/28 00:20:09;;;;;;;;;7.80;7.40;;;;;7.47;65.37;101037.41;5054102;28;9252;-62
2022/04/28 00:22:37;;;;;;;;;6.40;6.00;;;;;7.43;64.99;101042.94;5054738;28;8866;-61
2022/04/28 00:25:05;;;;;;;;;1.40;1.00;;;;;7.40;65.52;101035.13;5054510;28;8842;-61
2022/04/28 00:27:33;;;;;;;;;12.60;9.80;;;;;7.39;65.11;101038.69;5054620;28;8919;-61
2022/04/28 00:30:01;;;;;;;;;6.40;6.20;;;;;7.36;64.93;101038.88;5054653;28;8892;-61
2022/04/28 00:32:28;;;;;;;;;9.80;9.40;;;;;7.34;65.32;101041.59;5054718;28;8988;-60
2022/04/28 00:34:56;;;;;;;;;8.20;7.40;;;;;7.32;65.56;101038.16;5054625;28;8842;-60
2022/04/28 00:37:24;;;;;;;;;10.80;10.40;;;;;7.31;65.32;101040.88;5054480;28;8838;-61
2022/04/28 00:39:52;;;;;;;;;8.20;8.20;;;;;7.29;64.74;101040.09;5054627;28;8852;-61
2022/04/28 00:42:20;;;;;;;;;6.20;5.00;;;;;7.26;65.44;101037.56;5055601;28;8884;-62
2022/04/28 00:44:47;;;;;;;;;8.20;7.40;;;;;7.22;65.37;101038.69;5055294;28;8910;-62
2022/04/28 00:47:15;;;;;;;;;10.00;8.60;;;;;7.19;65.53;101042.31;5055463;28;8826;-62
2022/04/28 00:52:28;;;;;;;;;8.20;7.80;;;;;7.11;65.40;101040.97;5056029;28;8842;-61
2022/04/28 00:54:56;;;;;;;;;5.20;4.00;;;;;7.06;65.72;101038.53;5055425;28;8842;-62
2022/04/28 00:57:24;;;;;;;;;8.80;7.40;;;;;7.01;65.86;101032.63;5055389;28;8842;-64
2022/04/28 00:59:51;;;;;;;;;9.00;7.40;;;;;6.96;65.65;101036.44;5055652;28;8847;-61
2022/04/28 01:02:19;;;;;;;;;11.40;9.40;;;;;6.93;66.03;101036.56;5054300;28;8936;-61
2022/04/28 01:04:47;;;;;;;;;10.40;9.60;;;;;6.90;65.85;101034.91;5055390;28;8976;-67
2022/04/28 01:07:15;;;;;;;;;10.20;9.00;;;;;6.88;65.42;101035.91;5054759;28;9515;-62
2022/04/28 01:09:43;;;;;;;;;6.00;4.00;;;;;6.84;66.11;101040.47;5055007;28;8866;-62
2022/04/28 01:12:10;;;;;;;;;7.40;7.00;;;;;6.84;65.84;101034.34;5055376;28;8830;-62
2022/04/28 01:14:38;;;;;;;;;7.40;6.40;;;;;6.82;65.70;101038.88;5055220;28;8826;-62
2022/04/28 01:17:07;;;;;;;;;4.40;3.00;;;;;6.80;65.88;101046.00;5055335;28;8835;-62
2022/04/28 01:19:35;;;;;;;;;10.40;9.60;;;;;6.79;66.13;101039.00;5055439;28;9508;-62
2022/04/28 01:22:02;;;;;;;;;9.20;8.60;;;;;6.80;66.04;101048.63;5055187;28;8842;-61
2022/04/28 01:24:30;;;;;;;;;2.20;1.00;;;;;6.78;65.96;101045.22;5055657;28;8846;-61
2022/04/28 01:26:58;;;;;;;;;8.60;7.20;;;;;6.75;66.13;101045.38;5052815;28;8835;-62
2022/04/28 01:29:26;;;;;;;;;10.00;9.20;;;;;6.75;66.03;101050.66;5054793;28;8831;-63
2022/04/28 01:31:54;;;;;;;;;16.80;12.80;;;;;6.72;66.16;101048.13;5054602;28;8827;-63
2022/04/28 01:34:21;;;;;;;;;7.80;7.00;;;;;6.68;65.99;101049.22;5055263;28;8842;-61
2022/04/28 01:36:49;;;;;;;;;9.20;7.80;;;;;6.65;66.23;101050.22;5055285;28;8959;-63
2022/04/28 01:39:17;;;;;;;;;12.00;10.40;;;;;6.63;65.70;101051.22;5054146;28;8830;-62
2022/04/28 01:41:45;;;;;;;;;12.20;10.40;;;;;6.62;66.16;101050.38;5054600;28;8839;-61
2022/04/28 01:44:12;;;;;;;;;15.00;13.40;;;;;6.61;66.15;101047.78;5054972;28;8842;-62
2022/04/28 01:46:40;;;;;;;;;15.80;11.40;;;;;6.60;66.48;101052.22;5054766;28;8864;-60
2022/04/28 01:49:08;;;;;;;;;13.80;12.60;;;;;6.57;65.65;101057.66;5055106;28;8854;-61
2022/04/28 01:57:06;;;;;;;;;7.60;7.60;;;;;6.45;66.21;101052.91;5053686;28;8846;-62
2022/04/28 01:59:34;;;;;;;;;10.00;9.20;;;;;6.40;66.71;101059.34;5054643;28;8834;-61
2022/04/28 02:02:01;;;;;;;;;9.20;8.60;;;;;6.37;66.26;101059.50;5054584;28;8846;-61
2022/04/28 02:04:29;;;;;;;;;4.40;3.40;;;;;6.36;66.89;101063.06;5055056;28;8927;-61
2022/04/28 02:06:57;;;;;;;;;11.60;10.00;;;;;6.35;66.29;101063.97;5053796;28;8866;-62
2022/04/28 02:09:25;;;;;;;;;8.00;7.40;;;;;6.33;66.56;101058.75;5053484;28;8834;-61
2022/04/28 02:11:52;;;;;;;;;8.40;7.80;;;;;6.33;66.71;101068.47;5054393;28;8862;-61
2022/04/28 02:14:20;;;;;;;;;6.00;6.00;;;;;6.34;66.43;101059.59;5054911;28;8834;-61
2022/04/28 02:16:48;;;;;;;;;6.80;6.60;;;;;6.34;66.44;101054.31;5054830;28;8822;-61
2022/04/28 02:19:16;;;;;;;;;9.00;9.00;;;;;6.34;66.34;101059.59;5054860;28;8830;-63
2022/04/28 02:21:43;;;;;;;;;3.20;3.20;;;;;6.31;66.62;101057.09;5054360;28;9541;-61
2022/04/28 02:24:11;;;;;;;;;9.00;7.80;;;;;6.27;66.18;101059.03;5054532;28;8969;-61
2022/04/28 02:26:38;;;;;;;;;8.20;8.20;;;;;6.23;66.62;101061.88;5054769;28;8842;-61
2022/04/28 02:29:06;;;;;;;;;11.20;11.20;;;;;6.17;66.46;101063.03;5054304;28;8858;-61
2022/04/28 02:31:34;;;;;;;;;8.60;8.60;;;;;6.11;67.09;101062.41;5054267;28;8948;-63
2022/04/28 02:34:02;;;;;;;;;9.60;7.80;;;;;6.06;66.63;101067.06;5054515;28;9582;-62
2022/04/28 02:36:29;;;;;;;;;6.80;5.60;;;;;6.00;67.19;101067.31;5054709;28;8844;-61
2022/04/28 02:38:57;;;;;;;;;10.40;9.60;;;;;5.96;67.35;101065.72;5054061;28;9628;-60
2022/04/28 02:41:25;;;;;;;;;7.00;6.20;;;;;5.92;67.30;101064.97;5054492;28;8845;-60
2022/04/28 02:43:53;;;;;;;;;11.20;9.20;;;;;5.88;67.00;101060.78;5053851;28;8861;-61
2022/04/28 02:46:20;;;;;;;;;4.80;3.80;;;;;5.85;66.92;101066.16;5054290;28;8838;-62
2022/04/28 02:48:49;;;;;;;;;11.60;10.00;;;;;5.84;67.21;101059.16;5054629;28;8838;-61
2022/04/28 02:51:16;;;;;;;;;18.40;14.20;;;;;5.81;66.99;101063.72;5054058;28;8855;-61
2022/04/28 02:53:44;;;;;;;;;9.80;8.40;;;;;5.80;67.55;101062.00;5054472;28;8936;-61
2022/04/28 02:56:12;;;;;;;;;11.60;10.00;;;;;5.78;67.53;101069.94;5054310;28;8900;-63
2022/04/28 02:58:39;;;;;;;;;12.60;11.60;;;;;5.76;67.75;101069.16;5052825;28;8830;-62
2022/04/28 03:01:07;;;;;;;;;15.40;11.60;;;;;5.75;66.95;101059.53;5054076;28;8838;-61
2022/04/28 03:03:35;;;;;;;;;12.20;9.60;;;;;5.74;67.63;101063.09;5054092;28;8978;-60
2022/04/28 03:11:33;;;;;;;;;9.60;7.00;;;;;5.69;67.41;101073.00;5057027;28;8835;-63
2022/04/28 03:14:01;;;;;;;;;10.00;9.60;;;;;5.67;67.21;101069.56;5058170;28;8831;-62
2022/04/28 03:16:28;;;;;;;;;7.40;7.40;;;;;5.68;67.32;101078.34;5057509;28;8834;-61
2022/04/28 03:18:57;;;;;;;;;6.00;5.20;;;;;5.65;67.68;101078.47;5057218;28;8868;-61
2022/04/28 03:21:24;;;;;;;;;4.00;3.40;;;;;5.61;67.28;101072.44;5057035;28;8870;-60
2022/04/28 03:23:52;;;;;;;;;7.80;7.40;;;;;5.58;67.73;101079.63;5057446;28;8862;-61
2022/04/28 03:26:19;;;;;;;;;9.40;7.80;;;;;5.52;67.75;101079.88;5057622;28;8838;-60
2022/04/28 03:28:47;;;;;;;;;9.00;6.80;;;;;5.47;67.57;101081.88;5057388;28;8830;-62
2022/04/28 03:31:15;;;;;;;;;12.20;10.80;;;;;5.44;67.70;101087.25;5056850;28;8827;-61
2022/04/28 03:33:43;;;;;;;;;9.00;7.00;;;;;5.39;67.71;101086.59;5057024;28;8842;-63
2022/04/28 03:38:52;;;;;;;;;6.00;4.80;;;;;5.30;68.29;101081.66;5056036;28;9704;-61
2022/04/28 03:41:20;;;;;;;;;7.40;7.00;;;;;5.25;68.48;101083.66;5056967;28;8907;-63
2022/04/28 03:43:47;;;;;;;;;10.60;8.40;;;;;5.20;68.34;101081.19;5056474;28;8964;-61
2022/04/28 03:46:16;;;;;;;;;10.40;10.00;;;;;5.18;68.16;101083.03;5056246;28;8876;-63
2022/04/28 03:48:43;;;;;;;;;7.60;5.60;;;;;5.16;68.52;101079.59;5056307;28;8884;-61
2022/04/28 03:51:11;;;;;;;;;8.60;6.40;;;;;5.15;68.02;101090.19;5056582;28;8862;-61
2022/04/28 03:53:39;;;;;;;;;8.40;7.20;;;;;5.12;68.20;101077.13;5055944;28;8838;-63
2022/04/28 03:56:06;;;;;;;;;9.60;8.20;;;;;5.10;68.26;101087.75;5056338;28;9004;-63
2022/04/28 03:58:34;;;;;;;;;10.40;9.80;;;;;5.08;68.13;101086.09;5055821;28;8847;-61
2022/04/28 04:01:02;;;;;;;;;9.00;7.00;;;;;5.08;68.52;101086.94;5056201;28;8876;-64
2022/04/28 04:03:30;;;;;;;;;12.00;9.60;;;;;5.06;68.38;101085.28;5056096;28;8841;-61
2022/04/28 04:05:58;;;;;;;;;7.00;6.00;;;;;5.02;68.65;101078.41;5056554;28;8838;-62
2022/04/28 04:08:26;;;;;;;;;10.00;10.00;;;;;5.00;68.71;101080.25;5054757;28;8892;-62
2022/04/28 04:10:54;;;;;;;;;9.60;7.80;;;;;4.97;68.05;101078.59;5053721;28;9573;-64
2022/04/28 04:13:21;;;;;;;;;10.00;9.00;;;;;4.94;68.72;101077.88;5053075;28;8839;-61
2022/04/28 04:15:50;;;;;;;;;6.80;6.80;;;;;4.91;68.62;101089.38;5053077;28;8852;-61
2022/04/28 04:18:18;;;;;;;;;7.40;6.80;;;;;4.90;68.67;101084.16;5053350;28;8826;-62
2022/04/28 04:20:46;;;;;;;;;12.00;12.00;;;;;4.88;68.60;101086.84;5052860;28;8855;-61
2022/04/28 04:23:14;;;;;;;;;15.00;15.00;;;;;4.90;68.37;101092.06;5052742;28;8876;-62
2022/04/28 04:25:41;;;;;;;;;9.00;9.00;;;;;4.92;68.32;101095.50;5053487;28;8860;-62
2022/04/28 04:28:09;;;;;;;;;10.00;8.60;;;;;4.94;68.65;101085.78;5055409;28;8830;-62
2022/04/28 04:33:22;;;;;;;;;13.00;11.20;;;;;4.96;68.34;101094.50;5055584;28;8850;-61
2022/04/28 04:35:50;;;;;;;;;5.60;5.60;;;;;4.98;68.21;101103.19;5056115;28;8842;-63
2022/04/28 04:38:17;;;;;;;;;12.80;11.80;;;;;4.98;68.01;101100.56;5055897;28;8838;-60
2022/04/28 04:40:47;;;;;;;;;8.20;6.60;;;;;4.99;68.04;101097.00;5055844;28;8842;-61
2022/04/28 04:43:15;;;;;;;;;9.20;7.00;;;;;5.01;68.40;101105.75;5055782;28;8846;-62
2022/04/28 04:45:43;;;;;;;;;9.40;7.80;;;;;5.03;67.97;101103.91;5055365;28;8848;-61
2022/04/28 04:48:11;;;;;;;;;9.20;8.40;;;;;5.06;68.15;101103.75;5054690;28;8989;-62
2022/04/28 04:50:38;;;;;;;;;8.00;7.40;;;;;5.11;68.14;101102.69;5055672;28;8854;-62
2022/04/28 04:53:06;;;;;;;;;10.00;8.40;;;;;5.17;68.08;101104.22;5054660;28;8872;-63
2022/04/28 04:55:34;;;;;;;;;7.80;7.80;;;;;5.24;67.67;101108.34;5055218;28;8866;-61
2022/04/28 04:58:02;;;;;;;;;8.40;7.60;;;;;5.32;67.43;101115.03;5055170;28;8822;-63
2022/04/28 05:00:29;;;;;;;;;10.00;10.00;;;;;5.40;67.10;101110.28;5054697;28;9554;-61
2022/04/28 05:02:57;;;;;;;;;12.00;8.20;;;;;5.48;67.28;101116.13;5053982;28;8831;-61
2022/04/28 05:05:25;;;;;;;;;4.00;3.40;;;;;5.59;66.79;101120.97;5054807;28;8855;-62
2022/04/28 05:07:53;;;;;;;;;6.40;6.20;;;;;5.70;66.51;101129.34;5054586;28;8850;-62
2022/04/28 05:10:20;;;;;;;;;6.60;6.20;;;;;5.86;66.79;101130.47;5053971;28;8951;-62
2022/04/28 05:12:48;;;;;;;;;6.20;6.00;;;;;6.03;66.05;101135.91;5052958;28;8846;-62
2022/04/28 05:15:16;;;;;;;;;10.40;9.40;;;;;6.14;65.87;101128.41;5054092;28;9560;-62
2022/04/28 05:17:44;;;;;;;;;3.40;1.80;;;;;6.21;65.45;101125.41;5054811;28;8844;-61
2022/04/28 05:20:13;;;;;;;;;6.00;5.60;;;;;6.27;65.64;101129.56;5054489;28;8889;-62
2022/04/28 05:22:41;;;;;;;;;10.40;10.40;;;;;6.31;65.44;101128.53;5053575;28;8935;-61
2022/04/28 05:25:08;;;;;;;;;7.40;7.40;;;;;6.36;65.68;101126.53;5054506;28;8873;-62
2022/04/28 05:27:36;;;;;;;;;12.80;10.00;;;;;6.42;65.26;101136.84;5053571;28;9001;-63
2022/04/28 05:30:04;;;;;;;;;9.60;9.00;;;;;6.48;65.20;101136.56;5052436;28;8862;-61
2022/04/28 05:32:31;;;;;;;;;8.20;8.20;;;;;6.55;65.31;101133.59;5052296;28;8842;-62
2022/04/28 05:34:59;;;;;;;;;10.40;10.40;;;;;6.66;65.53;101138.44;5053246;28;8834;-62
2022/04/28 05:37:27;;;;;;;;;11.60;10.00;;;;;6.77;64.98;101137.00;5050585;28;8852;-62
2022/04/28 05:39:55;;;;;;;;;14.00;12.20;;;;;6.88;64.69;101141.78;5049157;28;9577;-63
2022/04/28 05:45:41;;;;;;;;;12.00;10.80;;;;;7.04;64.59;101142.84;5050466;28;8944;-61
2022/04/28 05:47:55;;;;;;;;;12.40;11.80;;;;;7.41;64.10;101138.38;5049572;28;8842;-61
2022/04/28 05:50:23;;;;;;;;;14.60;13.40;;;;;7.54;64.22;101138.66;5050656;28;8857;-61
2022/04/28 05:52:51;;;;;;;;;19.60;16.40;;;;;7.65;63.87;101141.66;5049045;28;9504;-63
2022/04/28 05:55:18;;;;;;;;;10.00;10.00;;;;;7.75;64.05;101144.63;5049901;28;8931;-61
2022/04/28 05:57:47;;;;;;;;;13.80;13.60;;;;;7.84;63.55;101146.81;5049203;28;8858;-62
2022/04/28 06:00:14;;;;;;;;;21.00;19.20;;;;;7.93;63.82;101142.88;5049173;28;8846;-63
2022/04/28 06:02:42;;;;;;;;;13.60;11.00;;;;;8.00;63.63;101145.13;5049002;28;8972;-61
2022/04/28 06:05:10;;;;;;;;;14.00;10.80;;;;;8.14;63.28;101142.66;5048556;28;8841;-62
2022/04/28 06:07:38;;;;;;;;;13.00;12.00;;;;;8.27;63.11;101151.75;5047664;28;8858;-61
2022/04/28 06:10:06;;;;;;;;;18.40;16.60;;;;;8.39;63.23;101148.47;5046522;28;8867;-62
2022/04/28 06:12:34;;;;;;;;;6.60;6.40;;;;;8.46;63.35;101149.88;5047609;28;8854;-61
2022/04/28 06:15:01;;;;;;;;;16.40;15.00;;;;;8.53;63.52;101148.59;5048038;28;8846;-61
2022/04/28 06:17:29;;;;;;;;;16.80;14.80;;;;;8.62;62.78;101148.13;5050363;28;8864;-62
2022/04/28 06:19:57;;;;;;;;;17.40;15.20;;;;;8.72;63.05;101149.38;5050538;28;9539;-62
2022/04/28 06:22:43;;;;;;;;;16.40;15.20;;;;;8.85;62.56;101144.25;5053611;28;8925;-62
2022/04/28 06:25:11;;;;;;;;;16.40;16.00;;;;;8.96;62.69;101148.06;5053246;28;8827;-62
2022/04/28 06:27:38;;;;;;;;;11.80;11.80;;;;;9.04;62.71;101150.31;5052857;28;8980;-62
2022/04/28 06:30:06;;;;;;;;;19.20;16.00;;;;;9.15;62.89;101156.75;5052251;28;8858;-62
2022/04/28 06:32:34;;;;;;;;;12.60;12.00;;;;;9.27;62.26;101148.09;5051966;28;8872;-62
2022/04/28 06:35:02;;;;;;;;;18.00;16.40;;;;;9.43;62.19;101148.13;5051591;28;8843;-62
2022/04/28 06:37:30;;;;;;;;;14.80;12.60;;;;;9.62;61.87;101154.09;5050753;28;8856;-61
2022/04/28 06:40:00;;;;;;;;;17.40;15.00;;;;;9.79;61.47;101160.19;5048687;28;8854;-62
2022/04/28 06:42:28;;;;;;;;;12.60;12.40;;;;;9.95;61.16;101161.03;5049481;28;8870;-63
2022/04/28 06:44:56;;;;;;;;;18.00;15.40;;;;;10.05;61.46;101156.94;5054311;28;8984;-62
2022/04/28 06:47:23;;;;;;;;;16.80;15.80;;;;;10.17;60.81;101161.53;5054166;28;8850;-62
2022/04/28 06:49:51;;;;;;;;;11.80;9.20;;;;;10.28;60.89;101159.13;5054169;28;9519;-62
2022/04/28 06:52:19;;;;;;;;;10.80;10.00;;;;;10.39;60.59;101166.47;5052757;28;8849;-63
2022/04/28 06:54:47;;;;;;;;;11.80;10.80;;;;;10.49;60.61;101156.97;5052819;28;8860;-62
2022/04/28 06:57:14;;;;;;;;;13.60;12.40;;;;;10.62;60.42;101156.13;5054234;28;8850;-62
2022/04/28 06:59:42;;;;;;;;;15.00;13.50;;;;;10.73;60.47;101151.03;5054003;28;8846;-62
2022/04/28 07:02:10;;;;;;;;;15.60;12.00;;;;;10.85;60.02;101154.75;5053257;28;8897;-61
2022/04/28 07:04:39;;;;;;;;;6.00;5.60;;;;;10.98;59.61;101159.22;5055915;28;8846;-62
2022/04/28 07:07:07;;;;;;;;;13.75;12.50;;;;;11.09;59.95;101169.22;5054789;28;8860;-63
2022/04/28 07:09:35;;;;;;;;;17.00;14.75;;;;;11.13;59.89;101168.06;5055576;28;8846;-62
2022/04/28 07:12:23;;;;;;;;;16.75;15.00;;;;;11.17;59.71;101173.13;5055824;28;8850;-62
2022/04/28 07:14:51;;;;;;;;;14.00;12.75;;;;;11.27;59.63;101176.06;5054500;28;8848;-63
2022/04/28 07:17:18;;;;;;;;;14.75;12.50;;;;;11.29;60.05;101172.34;5055094;28;8851;-62
2022/04/28 07:19:46;;;;;;;;;12.50;11.00;;;;;11.39;59.70;101173.47;5053032;28;8944;-64
2022/04/28 07:22:14;;;;;;;;;15.25;15.25;;;;;11.53;59.33;101176.13;5040489;28;8841;-63
2022/04/28 07:24:42;;;;;;;;;16.50;14.50;;;;;11.66;59.43;101179.75;5054169;28;8860;-62
2022/04/28 07:27:09;;;;;;;;;9.50;8.00;;;;;11.81;59.07;101185.91;5054826;28;8890;-63
2022/04/28 07:29:39;;;;;;;;;16.50;16.00;;;;;11.92;59.15;101189.63;5054023;28;8858;-62
2022/04/28 07:32:07;;;;;;;;;17.00;14.50;;;;;12.02;59.15;101191.56;5054311;28;8943;-62
2022/04/28 07:34:35;;;;;;;;;13.00;12.25;;;;;12.11;58.55;101192.78;5052914;28;9247;-63
2022/04/28 07:37:03;;;;;;;;;12.50;12.00;;;;;12.18;58.68;101194.09;5052834;28;8894;-62
2022/04/28 07:39:31;;;;;;;;;12.50;11.00;;;;;12.26;58.56;101191.78;5052224;28;8935;-61
2022/04/28 07:41:59;;;;;;;;;15.00;15.00;;;;;12.38;58.34;101199.81;5050932;28;8850;-62
2022/04/28 07:44:27;;;;;;;;;16.50;16.00;;;;;12.50;58.14;101204.34;5050906;28;8864;-62
2022/04/28 07:46:56;;;;;;;;;14.50;13.50;;;;;12.62;58.08;101191.97;5050597;28;8850;-63
2022/04/28 07:49:24;;;;;;;;;11.25;9.25;;;;;12.70;57.89;101186.97;5050033;28;8858;-61
2022/04/28 07:51:52;;;;;;;;;15.50;15.25;;;;;12.79;57.96;101197.00;5052403;28;8882;-62
2022/04/28 07:54:19;;;;;;;;;22.75;19.00;;;;;12.85;58.40;101196.59;5050038;28;8834;-61
2022/04/28 07:56:48;;;;;;;;;17.50;16.00;;;;;12.95;57.85;101193.22;5050243;28;8893;-62
2022/04/28 07:59:16;;;;;;;;;18.25;15.25;;;;;13.03;57.61;101198.03;5050957;28;8880;-61
2022/04/28 08:01:51;;;;;;;;;17.25;15.25;;;;;13.17;57.52;101192.56;5052148;28;8892;-62
2022/04/28 08:04:20;;;;;;;;;10.00;9.00;;;;;13.28;57.38;101196.19;5053006;28;8842;-63
2022/04/28 08:06:54;;;;;;;;;14.25;14.25;;;;;13.30;57.66;101202.28;5052585;28;9516;-62
2022/04/28 08:09:21;;;;;;;;;15.00;12.50;;;;;13.36;57.22;101203.69;5051860;28;8849;-61
2022/04/28 08:11:49;;;;;;;;;17.25;15.75;;;;;13.44;57.42;101204.84;5070166;28;9188;-62
2022/04/28 08:14:17;;;;;;;;;15.25;14.50;;;;;13.55;57.55;101201.41;5073437;28;8867;-61
2022/04/28 08:16:46;;;;;;;;;20.00;16.00;;;;;13.64;57.06;101204.28;5071255;28;8826;-62
2022/04/28 08:19:14;;;;;;;;;17.00;16.00;;;;;13.69;56.97;101211.97;5073421;28;9151;-61
2022/04/28 08:21:44;;;;;;;;;18.25;18.00;;;;;13.73;56.91;101210.81;5095587;28;8843;-62
2022/04/28 08:24:12;;;;;;;;;16.50;14.00;;;;;13.83;56.87;101206.47;5094166;28;8843;-62
2022/04/28 08:26:40;;;;;;;;;17.50;15.25;;;;;13.93;56.83;101215.53;5092388;28;9209;-61
2022/04/28 08:29:07;;;;;;;;;14.00;14.00;;;;;14.04;56.48;101223.66;5092943;28;8855;-62
2022/04/28 08:31:43;;;;;;;;;13.00;12.25;;;;;14.08;56.50;101211.75;5092702;28;8834;-63
2022/04/28 08:34:11;;;;;;;;;18.00;18.00;;;;;14.17;56.05;101213.72;5092735;28;8827;-62
2022/04/28 08:36:39;;;;;;;;;17.25;15.50;;;;;14.25;56.22;101214.91;5092541;28;8865;-62
2022/04/28 08:39:07;;;;;;;;;13.00;13.00;;;;;14.32;56.44;101216.19;5092626;28;9006;-62
2022/04/28 08:41:35;;;;;;;;;15.75;15.75;;;;;14.40;56.24;101213.78;5092605;28;9590;-62
2022/04/28 08:44:03;;;;;;;;;14.00;12.50;;;;;14.47;56.24;101214.16;5092833;28;8823;-61
2022/04/28 08:49:22;;;;;;;;;18.50;18.00;;;;;14.60;55.60;101218.50;5071989;28;8897;-61
2022/04/28 08:51:50;;;;;;;;;12.75;10.00;;;;;14.71;55.37;101210.47;5093259;28;8868;-62
2022/04/28 08:54:18;;;;;;;;;14.50;12.00;;;;;14.80;55.26;101215.13;5093727;28;8839;-61
2022/04/28 08:56:46;;;;;;;;;16.25;12.75;;;;;14.91;55.33;101222.34;5093328;28;8835;-62
2022/04/28 08:59:14;;;;;;;;;21.00;18.75;;;;;15.02;55.28;101223.22;5094153;28;8965;-61
2022/04/28 09:01:42;;;;;;;;;17.25;16.50;;;;;15.10;55.40;101217.28;5093231;28;8855;-61
2022/04/28 09:04:11;;;;;;;;;22.50;21.00;;;;;15.22;55.36;101217.19;5092533;28;8839;-61
2022/04/28 09:06:40;;;;;;;;;16.00;15.00;;;;;15.33;54.79;101221.75;5092937;28;9501;-62
2022/04/28 09:09:07;;;;;;;;;16.25;15.75;;;;;15.42;54.84;101229.06;5093017;28;8877;-62
2022/04/28 09:11:37;;;;;;;;;15.00;15.00;;;;;15.52;54.35;101227.34;5092779;28;8942;-62
2022/04/28 09:14:11;;;;;;;;;18.50;16.00;;;;;15.56;54.44;101218.09;5090858;28;9160;-64
2022/04/28 09:16:38;;;;;;;;;24.50;22.00;;;;;15.66;54.63;101225.28;5090305;28;8857;-62
2022/04/28 09:19:09;;;;;;;;;18.25;15.75;;;;;15.84;54.25;101223.78;5089189;28;9142;-61
2022/04/28 09:21:36;;;;;;;;;17.50;13.50;;;;;16.03;53.93;101223.16;5090238;28;8898;-62
2022/04/28 09:24:04;;;;;;;;;20.00;16.50;;;;;16.20;53.47;101218.94;5089278;28;8874;-62
2022/04/28 09:26:33;;;;;;;;;16.50;16.00;;;;;16.36;53.22;101223.91;5089176;28;8998;-62
2022/04/28 09:29:02;;;;;;;;;21.50;19.25;;;;;16.54;52.96;101223.28;5091694;28;9671;-62
2022/04/28 09:31:30;;;;;;;;;6.50;5.50;;;;;16.77;52.32;101210.56;5090493;28;9485;-62
2022/04/28 09:34:18;;;;;;;;;16.50;15.75;;;;;17.07;52.18;101213.31;5088975;28;8990;-62
2022/04/28 09:36:46;;;;;;;;;19.00;18.00;;;;;17.30;52.01;101213.03;5089749;28;8857;-62
2022/04/28 09:39:13;;;;;;;;;21.50;17.75;;;;;17.56;51.55;101208.09;5089621;28;8986;-62
2022/04/28 09:44:26;;;;;;;;;21.50;18.00;;;;;18.06;50.42;101207.97;5089581;28;8855;-62
2022/04/28 09:46:54;;;;;;;;;15.75;14.75;;;;;18.48;50.27;101201.41;5091007;28;8839;-62
2022/04/28 09:49:22;;;;;;;;;16.00;15.50;;;;;19.07;48.86;101199.38;5090984;28;8847;-63
2022/04/28 09:51:50;;;;;;;;;14.50;14.50;;;;;19.69;48.19;101196.03;5092315;28;8859;-62
2022/04/28 09:54:17;;;;;;;;;15.25;13.75;;;;;20.27;47.41;101187.47;5091093;28;8847;-62
2022/04/28 09:56:46;;;;;;;;;20.75;17.50;;;;;20.82;46.95;101184.41;5090652;28;8847;-63
2022/04/28 09:59:13;;;;;;;;;18.40;17.80;;;;;21.30;46.50;101184.81;5091627;28;8823;-62
2022/04/28 10:01:41;;;;;;;;;18.80;16.80;;;;;21.77;45.49;101177.09;5091239;28;8835;-62
2022/04/28 10:04:09;;;;;;;;;20.60;18.60;;;;;22.20;45.21;101180.50;5091247;28;8843;-62
2022/04/28 10:06:38;;;;;;;;;20.20;17.00;;;;;22.59;44.42;101172.59;5090812;28;9202;-62
2022/04/28 10:09:06;;;;;;;;;20.80;18.20;;;;;22.91;44.38;101173.44;5092008;28;8839;-62
2022/04/28 10:11:34;;;;;;;;;11.60;9.80;;;;;23.17;43.79;101165.97;5091023;28;8966;-63
2022/04/28 10:14:02;;;;;;;;;16.20;12.20;;;;;23.32;43.28;101175.13;5091591;28;9178;-62
2022/04/28 10:16:29;;;;;;;;;17.20;16.20;;;;;23.57;43.17;101181.31;5091873;28;8843;-63
2022/04/28 10:18:57;;;;;;;;;22.20;17.60;;;;;23.78;42.80;101178.88;5092747;28;8849;-63
2022/04/28 10:21:25;;;;;;;;;19.00;17.40;;;;;24.08;42.39;101178.94;5093791;28;8859;-63
2022/04/28 10:32:33;;;;;;;;;16.80;14.60;;;;;25.16;40.89;101167.72;5093684;28;8843;-63
2022/04/28 10:35:01;;;;;;;;;18.60;15.00;;;;;25.39;40.68;101165.81;5093618;28;8835;-62
2022/04/28 10:37:28;;;;;;;;;18.00;15.40;;;;;25.67;40.65;101171.25;5094683;28;8831;-62
2022/04/28 10:39:56;;;;;;;;;17.00;16.40;;;;;25.90;40.79;101163.81;5094548;28;8840;-63
2022/04/28 10:42:24;;;;;;;;;18.00;16.20;;;;;26.18;39.50;101164.81;5093646;28;8835;-63
2022/04/28 10:44:55;;;;;;;;;18.60;17.20;;;;;26.44;39.16;101172.44;5093263;28;8835;-63
2022/04/28 10:47:23;;;;;;;;;21.40;20.80;;;;;26.70;38.29;101161.84;5093781;28;8847;-63
2022/04/28 10:49:51;;;;;;;;;19.00;17.00;;;;;26.86;38.48;101162.38;5091833;28;8843;-63
2022/04/28 10:52:20;;;;;;;;;18.00;17.80;;;;;27.09;38.03;101157.53;5090501;28;9536;-63
2022/04/28 10:54:49;;;;;;;;;19.80;17.60;;;;;27.24;38.09;101165.69;5091903;28;8827;-63
2022/04/28 10:57:18;;;;;;;;;20.40;16.80;;;;;27.34;37.86;101164.28;5094316;28;8945;-62
2022/04/28 10:59:46;;;;;;;;;16.80;15.00;;;;;27.56;37.56;101171.34;5094960;28;8816;-63
2022/04/28 11:02:14;;;;;;;;;20.20;16.60;;;;;27.70;37.56;101164.91;5093166;28;9514;-63
2022/04/28 11:04:42;;;;;;;;;18.00;16.40;;;;;27.79;37.69;101165.63;5090187;28;8831;-63
2022/04/28 11:07:10;;;;;;;;;25.20;17.60;;;;;27.84;37.17;101166.69;5095157;28;8843;-63
2022/04/28 11:09:38;;;;;;;;;17.20;16.40;;;;;27.88;36.99;101165.25;5096181;28;8839;-63
2022/04/28 11:12:06;;;;;;;;;14.80;14.80;;;;;28.03;37.15;101156.88;5096245;28;8827;-63
2022/04/28 11:14:34;;;;;;;;;19.40;18.40;;;;;28.25;37.07;101162.03;5095020;28;8854;-63
2022/04/28 11:17:02;;;;;;;;;16.80;14.60;;;;;28.49;36.31;101166.09;5096175;28;8873;-63
2022/04/28 11:19:30;;;;;;;;;20.80;19.80;;;;;28.66;36.12;101157.28;5095902;28;8859;-63
2022/04/28 11:21:58;;;;;;;;;17.80;15.20;;;;;28.76;35.98;101167.84;5094773;28;8831;-63
2022/04/28 11:24:26;;;;;;;;;21.00;18.80;;;;;28.73;35.88;101166.34;5095359;28;8824;-63
2022/04/28 11:26:55;;;;;;;;;19.60;17.40;;;;;28.74;35.29;101173.53;5094578;28;8963;-63
2022/04/28 11:29:22;;;;;;;;;18.60;16.00;;;;;28.81;35.82;101166.16;5093445;28;8832;-63
2022/04/28 11:31:51;;;;;;;;;18.40;18.00;;;;;28.91;35.06;101161.09;5093622;28;8835;-63
2022/04/28 11:34:19;;;;;;;;;21.00;20.00;;;;;29.06;34.28;101161.75;5093963;28;8863;-63
2022/04/28 11:36:47;;;;;;;;;22.60;19.80;;;;;29.33;34.22;101152.44;5092761;28;8854;-63
2022/04/28 11:39:15;;;;;;;;;20.00;16.60;;;;;29.51;34.10;101152.63;5092308;28;8843;-63
2022/04/28 11:41:43;;;;;;;;;16.60;15.40;;;;;29.54;34.51;101152.22;5094409;28;9512;-63
2022/04/28 11:44:11;;;;;;;;;15.60;14.40;;;;;29.57;33.98;101143.53;5093673;28;8858;-63
2022/04/28 11:46:39;;;;;;;;;21.40;17.80;;;;;29.58;33.71;101142.47;5092493;28;8851;-64
2022/04/28 11:49:06;;;;;;;;;21.00;18.20;;;;;29.73;33.24;101147.72;5091450;28;8888;-63
2022/04/28 11:51:34;;;;;;;;;20.20;17.60;;;;;29.91;33.46;101151.47;5092300;28;8884;-63
2022/04/28 11:54:02;;;;;;;;;19.40;17.00;;;;;29.94;33.76;101151.03;5092677;28;8824;-63
2022/04/28 11:56:31;;;;;;;;;20.60;18.60;;;;;29.94;33.78;101141.94;5092614;28;8863;-63
2022/04/28 11:58:59;;;;;;;;;22.20;20.00;;;;;30.14;33.38;101138.06;5092801;28;8823;-63
2022/04/28 12:01:27;;;;;;;;;19.80;18.00;;;;;30.25;33.05;101140.09;5094687;28;9535;-64
2022/04/28 12:03:55;;;;;;;;;23.00;21.40;;;;;30.18;32.87;101139.31;5095058;28;8844;-64
2022/04/28 12:06:22;;;;;;;;;22.60;21.20;;;;;30.12;33.02;101139.34;5093818;28;8832;-63